createdAt,value
2022-12-23T00:00:44.353Z,9.18
2022-12-23T00:03:11.812Z,8.80
2022-12-23T00:05:39.664Z,11.32
2022-12-23T00:08:07.847Z,9.38
2022-12-23T00:10:38.661Z,10.00
2022-12-23T00:13:24.493Z,11.20
2022-12-23T00:15:51.491Z,13.60
2022-12-23T00:18:18.434Z,7.88
2022-12-23T00:20:45.473Z,10.05
2022-12-23T00:23:12.407Z,11.05
2022-12-23T00:25:44.921Z,11.27
2022-12-23T00:28:16.799Z,8.75
2022-12-23T00:30:47.956Z,11.98
2022-12-23T00:33:16.868Z,9.02
2022-12-23T00:35:45.302Z,9.05
2022-12-23T00:38:12.788Z,8.80
2022-12-23T00:40:58.558Z,10.07
2022-12-23T00:43:25.867Z,10.75
2022-12-23T00:45:53.484Z,10.57
2022-12-23T00:48:39.013Z,11.35
2022-12-23T00:51:06.368Z,10.05
2022-12-23T00:53:33.429Z,11.40
2022-12-23T00:56:00.495Z,9.82
2022-12-23T00:58:27.508Z,12.43
2022-12-23T01:01:13.207Z,11.60
2022-12-23T01:03:58.769Z,12.18
2022-12-23T01:06:25.798Z,9.25
2022-12-23T01:08:52.818Z,10.25
2022-12-23T01:11:19.804Z,11.77
2022-12-23T01:13:46.838Z,8.27
2022-12-23T01:16:17.716Z,11.77
2022-12-23T01:18:45.587Z,9.73
2022-12-23T01:21:12.825Z,11.63
2022-12-23T01:23:39.922Z,9.70
2022-12-23T01:26:09.053Z,10.77
2022-12-23T01:28:36.376Z,9.77
2022-12-23T01:31:05.869Z,11.50
2022-12-23T01:33:33.737Z,10.75
2022-12-23T01:36:06.964Z,8.98
2022-12-23T01:38:35.210Z,10.55
2022-12-23T01:41:02.435Z,8.80
2022-12-23T01:43:49.077Z,8.90
2022-12-23T01:46:16.256Z,10.23
2022-12-23T01:48:49.237Z,10.52
2022-12-23T01:51:28.963Z,8.60
2022-12-23T01:54:01.327Z,8.00
2022-12-23T01:56:39.876Z,8.15
2022-12-23T01:59:34.202Z,8.73
2022-12-23T02:02:20.774Z,7.95
2022-12-23T02:04:50.157Z,9.00
2022-12-23T02:07:37.242Z,8.63
2022-12-23T02:10:05.853Z,8.48
2022-12-23T02:13:13.686Z,10.45
2022-12-23T02:16:18.590Z,9.23
2022-12-23T02:19:05.826Z,9.63
2022-12-23T02:21:57.138Z,8.95
2022-12-23T02:24:51.797Z,8.00
2022-12-23T02:27:38.986Z,11.10
2022-12-23T02:30:31.037Z,9.77
2022-12-23T02:34:02.577Z,9.18
2022-12-23T02:36:37.928Z,8.23
2022-12-23T02:39:10.747Z,9.32
2022-12-23T02:41:54.816Z,8.50
2022-12-23T02:44:34.759Z,10.90
2022-12-23T02:47:13.066Z,10.30
2022-12-23T02:49:45.415Z,9.95
2022-12-23T02:52:18.818Z,10.35
2022-12-23T02:54:55.181Z,10.85
2022-12-23T02:57:29.552Z,12.25
2022-12-23T02:59:58.122Z,11.63
2022-12-23T03:02:25.305Z,10.48
2022-12-23T03:04:52.680Z,11.13
2022-12-23T03:07:42.686Z,10.90
2022-12-23T03:10:30.061Z,13.30
2022-12-23T03:13:47.227Z,10.25
2022-12-23T03:16:46.101Z,11.13
2022-12-23T03:19:39.538Z,11.07
2022-12-23T03:22:33.082Z,10.75
2022-12-23T03:25:37.569Z,12.07
2022-12-23T03:28:19.368Z,10.50
2022-12-23T03:30:51.198Z,9.57
2022-12-23T03:33:48.215Z,11.80
2022-12-23T03:36:25.033Z,8.73
2022-12-23T03:38:55.711Z,9.02
2022-12-23T03:41:40.922Z,11.43
2022-12-23T03:44:22.436Z,8.43
2022-12-23T03:46:59.117Z,10.60
2022-12-23T03:49:52.595Z,11.27
2022-12-23T03:52:27.329Z,8.30
2022-12-23T03:54:59.196Z,11.23
2022-12-23T03:58:00.203Z,11.05
2022-12-23T04:00:33.909Z,8.52
2022-12-23T04:03:25.306Z,10.35
2022-12-23T04:05:59.982Z,8.52
2022-12-23T04:08:33.376Z,7.97
2022-12-23T04:11:01.755Z,9.87
2022-12-23T04:13:29.749Z,7.95
2022-12-23T04:15:59.521Z,8.00
2022-12-23T04:18:26.792Z,7.13
2022-12-23T04:20:53.776Z,11.07
2022-12-23T04:23:20.853Z,8.98
2022-12-23T04:25:47.870Z,6.85
2022-12-23T04:28:14.972Z,8.38
2022-12-23T04:30:41.984Z,8.10
2022-12-23T04:33:12.241Z,5.87
2022-12-23T04:35:39.511Z,8.80
2022-12-23T04:38:06.676Z,8.20
2022-12-23T04:40:33.678Z,8.95
2022-12-23T04:43:00.729Z,9.43
2022-12-23T04:45:27.692Z,9.80
2022-12-23T04:47:55.398Z,8.65
2022-12-23T04:50:22.467Z,9.38
2022-12-23T04:52:49.463Z,8.55
2022-12-23T04:55:16.682Z,9.82
2022-12-23T04:57:43.799Z,8.50
2022-12-23T05:00:11.469Z,9.77
2022-12-23T05:02:38.639Z,10.70
2022-12-23T05:05:06.204Z,8.60
2022-12-23T05:07:33.198Z,11.30
2022-12-23T05:10:02.125Z,10.30
2022-12-23T05:12:30.985Z,10.40
2022-12-23T05:14:58.116Z,8.45
2022-12-23T05:17:25.114Z,10.90
2022-12-23T05:19:52.335Z,9.93
2022-12-23T05:22:19.288Z,10.88
2022-12-23T05:24:46.520Z,10.27
2022-12-23T05:27:13.571Z,11.20
2022-12-23T05:29:40.535Z,8.77
2022-12-23T05:32:07.642Z,9.90
2022-12-23T05:34:34.896Z,11.90
2022-12-23T05:37:02.027Z,10.10
2022-12-23T05:39:29.161Z,10.60
2022-12-23T05:41:56.223Z,15.02
2022-12-23T05:44:23.361Z,11.40
2022-12-23T05:46:50.377Z,11.65
2022-12-23T05:49:17.613Z,11.80
2022-12-23T05:51:44.581Z,14.98
2022-12-23T05:54:11.598Z,13.40
2022-12-23T05:56:38.587Z,14.48
2022-12-23T05:59:05.605Z,13.37
2022-12-23T06:01:32.699Z,13.43
2022-12-23T06:03:59.964Z,10.40
2022-12-23T06:06:27.140Z,14.15
2022-12-23T06:08:59.347Z,12.00
2022-12-23T06:11:27.166Z,12.00
2022-12-23T06:13:54.160Z,14.48
2022-12-23T06:16:21.310Z,13.90
2022-12-23T06:18:48.269Z,12.38
2022-12-23T06:21:15.236Z,16.85
2022-12-23T06:23:42.196Z,14.07
2022-12-23T06:26:09.149Z,13.25
2022-12-23T06:28:36.196Z,14.40
2022-12-23T06:31:03.297Z,14.20
2022-12-23T06:33:30.289Z,14.07
2022-12-23T06:35:57.367Z,15.23
2022-12-23T06:38:24.403Z,13.73
2022-12-23T06:40:51.413Z,14.85
2022-12-23T06:43:18.547Z,14.75
2022-12-23T06:45:49.121Z,16.27
2022-12-23T06:48:17.519Z,15.75
2022-12-23T06:50:44.632Z,13.20
2022-12-23T06:53:11.697Z,8.75
2022-12-23T06:55:38.757Z,6.05
2022-12-23T06:58:06.211Z,4.88
2022-12-23T07:00:33.198Z,2.63
2022-12-23T07:03:00.361Z,4.03
2022-12-23T07:05:33.271Z,2.50
2022-12-23T07:08:03.707Z,2.50
2022-12-23T07:10:30.786Z,2.17
2022-12-23T07:12:57.739Z,3.53
2022-12-23T07:15:24.827Z,3.23
2022-12-23T07:17:51.881Z,2.67
2022-12-23T07:20:18.933Z,1.88
2022-12-23T07:22:45.909Z,2.80
2022-12-23T07:25:13.596Z,3.85
2022-12-23T07:27:40.622Z,2.55
2022-12-23T07:30:08.805Z,2.75
2022-12-23T07:32:35.801Z,2.08
2022-12-23T07:35:02.976Z,3.95
2022-12-23T07:37:30.205Z,2.92
2022-12-23T07:39:57.387Z,2.85
2022-12-23T07:42:43.955Z,4.45
2022-12-23T07:45:11.649Z,2.47
2022-12-23T07:47:38.635Z,2.67
2022-12-23T07:50:06.573Z,3.22
2022-12-23T07:52:33.542Z,1.83
2022-12-23T07:55:00.521Z,2.42
2022-12-23T07:57:29.292Z,2.28
2022-12-23T07:59:56.339Z,2.63
2022-12-23T08:02:25.341Z,3.75
2022-12-23T08:04:52.609Z,3.33
2022-12-23T08:07:19.615Z,1.85
2022-12-23T08:09:46.583Z,2.20
2022-12-23T08:12:13.575Z,2.70
2022-12-23T08:14:40.574Z,2.42
2022-12-23T08:17:07.902Z,2.03
2022-12-23T08:19:37.556Z,2.30
2022-12-23T08:22:04.598Z,1.80
2022-12-23T08:24:31.596Z,1.80
2022-12-23T08:26:58.795Z,2.78
2022-12-23T08:29:28.882Z,2.53
2022-12-23T08:31:58.380Z,1.97
2022-12-23T08:34:25.479Z,2.15
2022-12-23T08:36:52.405Z,2.33
2022-12-23T08:39:19.526Z,2.43
2022-12-23T08:41:48.530Z,2.33
2022-12-23T08:44:16.261Z,2.67
2022-12-23T08:46:43.533Z,2.47
2022-12-23T08:49:11.388Z,1.58
2022-12-23T08:51:38.716Z,1.98
2022-12-23T08:54:06.564Z,2.33
2022-12-23T08:56:41.344Z,1.80
2022-12-23T08:59:18.691Z,1.13
2022-12-23T09:01:47.058Z,2.08
2022-12-23T09:04:14.304Z,1.77
2022-12-23T09:06:43.819Z,2.83
2022-12-23T09:09:15.669Z,1.95
2022-12-23T09:11:43.409Z,1.40
2022-12-23T09:14:11.672Z,2.15
2022-12-23T09:16:39.576Z,1.48
2022-12-23T09:19:07.643Z,1.58
2022-12-23T09:21:35.014Z,1.77
2022-12-23T09:24:02.148Z,2.42
2022-12-23T09:26:31.718Z,1.90
2022-12-23T09:28:59.873Z,1.25
2022-12-23T09:31:34.018Z,2.38
2022-12-23T09:34:03.126Z,1.95
2022-12-23T09:36:30.174Z,2.08
2022-12-23T09:38:58.543Z,1.25
2022-12-23T09:41:42.856Z,1.33
2022-12-23T09:44:41.780Z,1.80
2022-12-23T09:47:15.775Z,1.60
2022-12-23T09:50:20.845Z,1.63
2022-12-23T09:53:27.945Z,2.30
2022-12-23T09:56:31.252Z,1.70
2022-12-23T09:59:08.984Z,1.73
2022-12-23T10:01:48.906Z,3.10
2022-12-23T10:04:22.001Z,1.40
2022-12-23T10:07:26.880Z,1.42
2022-12-23T10:09:57.614Z,0.98
2022-12-23T10:12:40.413Z,2.60
2022-12-23T10:15:44.431Z,2.20
2022-12-23T10:18:48.752Z,1.08
2022-12-23T10:21:50.554Z,1.65
2022-12-23T10:24:24.647Z,1.27
2022-12-23T10:27:00.619Z,1.88
2022-12-23T10:29:32.973Z,1.73
2022-12-23T10:32:11.605Z,1.58
2022-12-23T10:35:06.271Z,2.17
2022-12-23T10:37:41.786Z,1.50
2022-12-23T10:40:49.575Z,0.95
2022-12-23T10:43:35.033Z,1.25
2022-12-23T10:46:07.707Z,2.38
2022-12-23T10:48:49.239Z,1.10
2022-12-23T10:51:47.254Z,2.88
2022-12-23T10:54:23.835Z,1.65
2022-12-23T10:56:50.880Z,1.55
2022-12-23T10:59:25.924Z,2.13
2022-12-23T11:02:20.611Z,2.75
2022-12-23T11:04:50.949Z,1.50
2022-12-23T11:07:46.075Z,2.58
2022-12-23T11:10:19.569Z,0.90
2022-12-23T11:12:52.731Z,1.40
2022-12-23T11:15:41.555Z,1.35
2022-12-23T11:18:14.342Z,1.88
2022-12-23T11:20:46.273Z,1.40
2022-12-23T11:23:29.400Z,2.22
2022-12-23T11:26:10.003Z,1.33
2022-12-23T11:28:47.804Z,0.60
2022-12-23T11:31:17.015Z,1.50
2022-12-23T11:33:57.601Z,1.42
2022-12-23T11:36:27.849Z,1.27
2022-12-23T11:39:09.808Z,1.23
2022-12-23T11:41:47.887Z,0.95
2022-12-23T11:44:36.022Z,1.10
2022-12-23T11:47:35.643Z,1.10
2022-12-23T11:50:31.609Z,1.30
2022-12-23T11:53:25.560Z,1.52
2022-12-23T11:56:10.463Z,1.88
2022-12-23T11:58:48.236Z,1.47
2022-12-23T12:01:20.398Z,1.95
2022-12-23T12:04:03.176Z,1.38
2022-12-23T12:06:32.569Z,1.70
2022-12-23T12:09:01.330Z,0.80
2022-12-23T12:11:38.386Z,1.40
2022-12-23T12:14:08.454Z,1.10
2022-12-23T12:17:03.362Z,1.00
2022-12-23T12:20:14.482Z,0.80
2022-12-23T12:22:48.027Z,3.15
2022-12-23T12:25:24.283Z,1.48
2022-12-23T12:28:03.585Z,1.13
2022-12-23T12:30:49.267Z,1.13
2022-12-23T12:33:33.853Z,1.17
2022-12-23T12:36:24.186Z,1.40
2022-12-23T12:38:54.651Z,0.82
2022-12-23T12:41:38.623Z,1.70
2022-12-23T12:44:32.218Z,1.25
2022-12-23T12:47:44.710Z,1.40
2022-12-23T12:50:24.423Z,1.48
2022-12-23T12:52:54.029Z,1.45
2022-12-23T12:55:30.235Z,0.45
2022-12-23T12:57:57.385Z,1.10
2022-12-23T13:00:25.173Z,0.70
2022-12-23T13:03:30.103Z,0.80
2022-12-23T13:06:30.751Z,1.27
2022-12-23T13:09:05.847Z,1.30
2022-12-23T13:12:11.393Z,1.08
2022-12-23T13:15:03.790Z,1.27
2022-12-23T13:17:48.602Z,0.98
2022-12-23T13:20:42.927Z,1.40
2022-12-23T13:23:44.177Z,1.10
2022-12-23T13:26:39.179Z,1.27
2022-12-23T13:29:27.126Z,1.35
2022-12-23T13:32:12.131Z,1.35
2022-12-23T13:35:00.442Z,1.30
2022-12-23T13:37:59.594Z,1.38
2022-12-23T13:41:03.585Z,0.80
2022-12-23T13:43:58.354Z,2.17
2022-12-23T13:46:45.940Z,0.77
2022-12-23T13:49:29.811Z,0.73
2022-12-23T13:52:39.449Z,0.52
2022-12-23T13:55:40.646Z,1.08
2022-12-23T13:58:20.303Z,1.10
2022-12-23T14:00:56.481Z,1.57
2022-12-23T14:03:32.597Z,1.55
2022-12-23T14:05:59.793Z,1.00
2022-12-23T14:08:42.173Z,0.70
2022-12-23T14:11:29.815Z,0.50
2022-12-23T14:14:05.766Z,0.68
2022-12-23T14:16:57.694Z,0.98
2022-12-23T14:20:06.778Z,1.23
2022-12-23T14:23:27.079Z,0.57
2022-12-23T14:26:19.414Z,2.03
2022-12-23T14:28:56.488Z,2.15
2022-12-23T14:31:30.872Z,2.50
2022-12-23T14:34:18.795Z,1.35
2022-12-23T14:37:20.553Z,1.48
2022-12-23T14:39:49.318Z,1.92
2022-12-23T14:42:42.049Z,3.42
2022-12-23T14:45:33.436Z,3.58
2022-12-23T14:48:00.528Z,3.08
2022-12-23T14:50:34.105Z,4.07
2022-12-23T14:53:04.749Z,3.47
2022-12-23T14:55:32.787Z,4.40
2022-12-23T14:58:20.339Z,2.87
2022-12-23T15:00:59.562Z,3.03
2022-12-23T15:03:30.429Z,4.35
2022-12-23T15:05:59.069Z,2.15
2022-12-23T15:08:34.913Z,3.72
2022-12-23T15:11:02.834Z,2.93
2022-12-23T15:13:31.846Z,5.28
2022-12-23T15:16:01.724Z,4.10
2022-12-23T15:18:29.342Z,2.43
2022-12-23T15:21:10.669Z,2.10
2022-12-23T15:23:37.698Z,4.18
2022-12-23T15:26:04.815Z,3.35
2022-12-23T15:28:38.802Z,4.30
2022-12-23T15:31:14.952Z,5.55
2022-12-23T15:34:04.075Z,4.43
2022-12-23T15:36:40.437Z,7.00
2022-12-23T15:39:21.145Z,4.35
2022-12-23T15:41:48.863Z,5.55
2022-12-23T15:44:27.032Z,7.15
2022-12-23T15:46:54.154Z,7.45
2022-12-23T15:49:21.861Z,5.60
2022-12-23T15:52:09.685Z,5.05
2022-12-23T15:55:01.878Z,5.50
2022-12-23T15:57:31.348Z,4.45
2022-12-23T16:00:00.037Z,6.18
2022-12-23T16:05:31.657Z,6.18
2022-12-23T16:08:29.771Z,8.02
2022-12-23T16:11:18.718Z,6.57
2022-12-23T16:14:24.576Z,7.05
2022-12-23T16:16:52.745Z,6.93
2022-12-23T16:19:43.134Z,9.95
2022-12-23T16:22:34.535Z,9.82
2022-12-23T16:25:24.942Z,9.48
2022-12-23T16:28:06.061Z,11.40
2022-12-23T16:30:44.279Z,9.63
2022-12-23T16:33:25.512Z,11.33
2022-12-23T16:35:54.918Z,11.25
2022-12-23T16:38:26.742Z,13.55
2022-12-23T16:40:57.166Z,14.43
2022-12-23T16:43:25.491Z,12.93
2022-12-23T16:45:56.633Z,12.43
2022-12-23T16:48:55.528Z,13.88
2022-12-23T16:51:23.508Z,14.77
2022-12-23T16:53:55.309Z,14.48
2022-12-23T16:56:43.684Z,13.95
2022-12-23T16:59:10.800Z,13.90
2022-12-23T17:01:42.186Z,14.25
2022-12-23T17:04:09.297Z,14.27
2022-12-23T17:06:37.423Z,11.57
2022-12-23T17:09:05.910Z,11.40
2022-12-23T17:11:48.895Z,13.15
2022-12-23T17:14:21.570Z,13.20
2022-12-23T17:16:50.227Z,12.27
2022-12-23T17:19:23.331Z,10.15
2022-12-23T17:22:01.289Z,14.97
2022-12-23T17:24:28.656Z,12.93
2022-12-23T17:26:59.258Z,13.07
2022-12-23T17:29:26.453Z,14.15
2022-12-23T17:31:54.130Z,13.93
2022-12-23T17:34:24.486Z,17.52
2022-12-23T17:36:52.902Z,13.25
2022-12-23T17:39:21.493Z,13.20
2022-12-23T17:41:49.297Z,15.90
2022-12-23T17:44:18.572Z,13.15
2022-12-23T17:46:46.728Z,14.30
2022-12-23T17:49:14.020Z,13.90
2022-12-23T17:51:42.596Z,13.07
2022-12-23T17:54:24.754Z,16.35
2022-12-23T17:56:52.067Z,16.38
2022-12-23T17:59:20.365Z,12.40
2022-12-23T18:01:47.914Z,14.57
2022-12-23T18:04:14.962Z,15.05
2022-12-23T18:06:43.316Z,13.73
2022-12-23T18:09:10.305Z,11.45
2022-12-23T18:11:43.967Z,15.95
2022-12-23T18:14:27.869Z,17.40
2022-12-23T18:16:55.175Z,14.98
2022-12-23T18:19:22.369Z,15.20
2022-12-23T18:21:50.867Z,14.65
2022-12-23T18:24:18.364Z,12.43
2022-12-23T18:26:45.579Z,15.18
2022-12-23T18:29:12.664Z,12.45
2022-12-23T18:31:51.233Z,12.20
2022-12-23T18:34:19.730Z,11.90
2022-12-23T18:36:48.440Z,10.02
2022-12-23T18:39:15.764Z,12.05
2022-12-23T18:41:42.718Z,8.95
2022-12-23T18:44:19.500Z,13.55
2022-12-23T18:46:47.822Z,9.68
2022-12-23T18:49:15.030Z,15.00
2022-12-23T18:51:41.999Z,14.70
2022-12-23T18:54:14.921Z,16.02
2022-12-23T18:56:42.302Z,14.00
2022-12-23T18:59:25.698Z,12.50
2022-12-23T19:01:56.644Z,10.05
2022-12-23T19:04:23.730Z,15.40
2022-12-23T19:06:50.865Z,12.98
2022-12-23T19:09:21.519Z,15.07
2022-12-23T19:11:50.200Z,16.35
2022-12-23T19:14:17.366Z,10.57
2022-12-23T19:16:50.903Z,12.48
2022-12-23T19:19:18.837Z,13.65
2022-12-23T19:21:45.897Z,13.77
2022-12-23T19:24:13.014Z,13.38
2022-12-23T19:26:39.997Z,12.55
2022-12-23T19:29:06.941Z,14.30
2022-12-23T19:31:34.281Z,15.98
2022-12-23T19:34:01.679Z,16.95
2022-12-23T19:36:28.789Z,15.27
2022-12-23T19:38:57.874Z,16.88
2022-12-23T19:41:25.592Z,11.82
2022-12-23T19:43:52.712Z,13.20
2022-12-23T19:46:19.814Z,16.60
2022-12-23T19:48:52.452Z,13.45
2022-12-23T19:51:19.993Z,16.40
2022-12-23T19:53:51.339Z,15.23
2022-12-23T19:56:23.116Z,12.55
2022-12-23T19:58:51.137Z,13.07
2022-12-23T20:01:21.771Z,14.23
2022-12-23T20:03:49.889Z,11.50
2022-12-23T20:06:33.620Z,14.80
2022-12-23T20:09:04.327Z,10.27
2022-12-23T20:11:38.887Z,11.32
2022-12-23T20:14:07.204Z,11.88
2022-12-23T20:16:35.483Z,14.75
2022-12-23T20:19:03.017Z,15.27
2022-12-23T20:21:30.125Z,9.70
2022-12-23T20:23:57.299Z,10.73
2022-12-23T20:26:24.500Z,12.40
2022-12-23T20:28:51.587Z,8.25
2022-12-23T20:31:21.081Z,12.02
2022-12-23T20:33:49.977Z,11.13
2022-12-23T20:36:23.073Z,12.05
2022-12-23T20:38:52.279Z,14.55
2022-12-23T20:41:23.547Z,10.32
2022-12-23T20:44:23.516Z,13.30
2022-12-23T20:46:37.943Z,10.73
2022-12-23T20:49:04.998Z,12.27
2022-12-23T20:51:32.109Z,10.93
2022-12-23T20:53:59.823Z,10.47
2022-12-23T20:56:29.288Z,11.82
2022-12-23T20:59:02.302Z,11.80
2022-12-23T21:01:35.837Z,10.37
2022-12-23T21:04:06.831Z,10.77
2022-12-23T21:06:34.977Z,11.75
2022-12-23T21:09:05.510Z,13.45
2022-12-23T21:11:39.077Z,9.63
2022-12-23T21:14:07.810Z,11.82
2022-12-23T21:16:37.427Z,7.90
2022-12-23T21:19:07.059Z,11.02
2022-12-23T21:21:34.380Z,13.23
2022-12-23T21:24:04.781Z,11.95
2022-12-23T21:26:33.520Z,10.40
2022-12-23T21:29:03.864Z,13.68
2022-12-23T21:31:33.412Z,14.85
2022-12-23T21:34:01.145Z,14.10
2022-12-23T21:36:32.923Z,12.85
2022-12-23T21:39:00.738Z,11.52
2022-12-23T21:41:31.114Z,13.00
2022-12-23T21:43:59.601Z,13.88
2022-12-23T21:46:28.551Z,19.90
2022-12-23T21:48:57.127Z,14.57
2022-12-23T21:51:39.501Z,16.50
2022-12-23T21:54:08.945Z,12.23
2022-12-23T21:56:36.153Z,9.25
2022-12-23T21:59:07.985Z,12.27
2022-12-23T22:01:35.282Z,13.25
2022-12-23T22:04:02.647Z,13.88
2022-12-23T22:06:37.488Z,17.77
2022-12-23T22:09:06.974Z,15.25
2022-12-23T22:11:36.348Z,13.13
2022-12-23T22:14:06.385Z,14.25
2022-12-23T22:16:35.023Z,11.63
2022-12-23T22:19:03.033Z,11.63
2022-12-23T22:21:32.615Z,11.75
2022-12-23T22:24:00.286Z,13.13
2022-12-23T22:26:31.731Z,14.85
2022-12-23T22:29:01.856Z,12.88
2022-12-23T22:31:53.030Z,12.90
2022-12-23T22:34:22.670Z,11.32
2022-12-23T22:36:49.815Z,8.65
2022-12-23T22:39:21.165Z,10.80
2022-12-23T22:41:50.872Z,15.68
2022-12-23T22:44:18.033Z,9.65
2022-12-23T22:46:45.429Z,12.02
2022-12-23T22:49:14.493Z,13.77
2022-12-23T22:51:42.440Z,11.13
2022-12-23T22:54:10.269Z,10.45
2022-12-23T22:56:37.826Z,10.27
2022-12-23T22:59:05.000Z,13.85
2022-12-23T23:01:35.503Z,14.65
2022-12-23T23:04:04.510Z,12.27
2022-12-23T23:06:38.290Z,11.60
2022-12-23T23:09:16.158Z,11.15
2022-12-23T23:11:44.450Z,12.32
2022-12-23T23:14:12.504Z,11.80
2022-12-23T23:16:40.153Z,11.75
2022-12-23T23:19:09.119Z,14.45
2022-12-23T23:21:37.804Z,13.93
2022-12-23T23:24:05.900Z,14.90
2022-12-23T23:26:32.928Z,13.20
2022-12-23T23:28:59.971Z,12.15
2022-12-23T23:31:43.547Z,14.18
2022-12-23T23:34:12.733Z,12.70
2022-12-23T23:36:40.486Z,11.80
2022-12-23T23:39:08.300Z,16.35
2022-12-23T23:41:35.813Z,12.75
2022-12-23T23:44:02.820Z,12.50
2022-12-23T23:46:31.752Z,9.80
2022-12-23T23:48:58.926Z,13.95
2022-12-23T23:51:26.098Z,14.27
2022-12-23T23:53:53.140Z,14.43
2022-12-23T23:56:25.357Z,11.43
2022-12-23T23:58:53.033Z,14.90
